Detall de PIREP

Printer-friendly versionPDF version

[2013/12/22 07:00:00]
Flight IATA:CT1004
Pilot Number:012
Company ICAO:CAT
Aircraft Type:B463/A
PAX:100
Aircraft Registration:PAX
Departing Airport: EGLC
Destination Airport: LEBL
Alternate Airport:LEPA
Online: VATSIM
Route:LYD UM189 DRAKE UL151 SITET UN859 PUMAL
Flight Level:F290
No Slew and time accel
No pause
Crash detect
Detect pilot in Cockpit between each 30 and 45 minutes
07:00 Zero fuel Weight: 74707 Lbs, Fuel Weight: 18015 Lbs
07:00 VATSIM:EGLC 220620Z AUTO 21012KT 9999 RA FEW030/// SCT045/// 10/06 Q1008
07:00 VATSIM:LEBL 220630Z 32009KT CAVOK 04/M00 Q1030 NOSIG
07:01 VOICE CATALONIAN / X-MAS CHARTER
07:35 Parking Brakes off
07:40 Take-off
07:40 Take off Weight: 92211 Lbs
07:40 Wind: 211º @ 014 Knots Heading: 267º
07:40 POS N51º 30´ 19´´ E000º 02´ 34´´
07:40 Gear Up: 148 Knots
07:40 Flaps:2 at 148 Knots
07:41 Flaps:1 at 177 Knots
07:42 Flaps:0 at 182 Knots
07:54 TOC
07:54 Fuel Weight: 15289 Lb
07:54 TOD
07:54 Fuel Weight: 15282 Lb
07:54 TOC
07:54 Fuel Weight: 15259 Lb
07:55 Wind:237º@077 Knots Heading: 150º Ground Speed: 395 Knots Altitude 28877 ft
08:02 TOD
08:02 Fuel Weight: 14583 Lb
08:04 TOC
08:04 Fuel Weight: 14366 Lb
08:10 Wind:241º@075 Knots Heading: 235º Ground Speed: 336 Knots Altitude 29038 ft
08:25 Wind:245º@072 Knots Heading: 174º Ground Speed: 393 Knots Altitude 29140 ft
08:40 Wind:251º@057 Knots Heading: 189º Ground Speed: 382 Knots Altitude 29281 ft
08:55 Wind:257º@048 Knots Heading: 177º Ground Speed: 404 Knots Altitude 29393 ft
09:10 Wind:272º@030 Knots Heading: 180º Ground Speed: 411 Knots Altitude 29475 ft
09:19 TOD
09:19 Fuel Weight: 7227 Lb
09:25 Wind:317º@006 Knots Heading: 146º Ground Speed: 315 Knots Altitude 18559 ft
09:34 Flaps:1 at 212 Knots
09:35 Gear Down: 179 Knots
09:35 Flaps:2 at 160 Knots
09:36 Flaps:3 at 160 Knots
09:36 Flaps:4 at 139 Knots
09:39 TouchDown:Rate -199 ft/min Speed: 120 Knots
09:40 Wind:319º@007 Knots Heading: 243º Ground Speed: 061 Knots Altitude 019 ft
09:40 VATSIM:LEBL 220900Z 32007KT CAVOK 06/01 Q1031 NOSIG
09:40 Land
09:40 Wind:319º@007 Knots
09:40 Heading: 246º
09:40 Flight Duration: 02:00
09:40 Landing Weight: 81160 Lbs
09:40 POS N41º 17´ 55´´ E002º 04´ 58´´
09:42 Parking brakes on
09:42 Block to Block Duration: 02:07
09:42 Final Fuel: 6364 Lbls
09:42 Spent Fuel: 11651 Lbls
09:42 Flight Length: 716 NM
09:42 TOD Land Length: 89 NM

Exportar CSV

Powered by Drupal - Modified by Danger4k